createdAt,value
2023-04-06T00:01:20.977Z,5.47
2023-04-06T00:03:48.168Z,4.40
2023-04-06T00:06:17.179Z,12.93
2023-04-06T00:08:45.596Z,5.90
2023-04-06T00:11:12.822Z,8.37
2023-04-06T00:13:40.339Z,4.80
2023-04-06T00:16:07.819Z,4.20
2023-04-06T00:18:35.013Z,6.17
2023-04-06T00:21:02.149Z,6.77
2023-04-06T00:23:29.331Z,4.87
2023-04-06T00:25:56.686Z,5.93
2023-04-06T00:28:27.088Z,5.50
2023-04-06T00:30:56.315Z,5.03
2023-04-06T00:33:24.775Z,6.50
2023-04-06T00:35:55.559Z,5.13
2023-04-06T00:38:23.668Z,6.40
2023-04-06T00:40:51.414Z,7.33
2023-04-06T00:43:18.667Z,6.50
2023-04-06T00:45:45.900Z,6.97
2023-04-06T00:48:13.069Z,8.63
2023-04-06T00:50:40.571Z,6.07
2023-04-06T00:53:07.785Z,8.23
2023-04-06T00:55:36.909Z,7.87
2023-04-06T00:58:04.995Z,6.63
2023-04-06T01:00:33.537Z,7.47
2023-04-06T01:03:00.878Z,6.53
2023-04-06T01:05:28.260Z,6.57
2023-04-06T01:07:55.628Z,9.40
2023-04-06T01:10:30.227Z,7.00
2023-04-06T01:12:57.382Z,8.03
2023-04-06T01:15:26.790Z,9.97
2023-04-06T01:17:53.995Z,8.27
2023-04-06T01:20:21.533Z,9.87
2023-04-06T01:22:48.672Z,12.30
2023-04-06T01:25:15.835Z,9.40
2023-04-06T01:27:43.674Z,5.70
2023-04-06T01:30:11.642Z,10.13
2023-04-06T01:32:38.979Z,6.77
2023-04-06T01:35:06.742Z,6.30
2023-04-06T01:37:33.876Z,7.07
2023-04-06T01:40:01.774Z,8.27
2023-04-06T01:42:29.118Z,7.63
2023-04-06T01:44:56.333Z,7.70
2023-04-06T01:47:23.507Z,7.57
2023-04-06T01:49:51.093Z,7.60
2023-04-06T01:52:18.739Z,8.67
2023-04-06T01:54:45.928Z,8.87
2023-04-06T01:57:13.075Z,7.13
2023-04-06T01:59:42.591Z,7.17
2023-04-06T02:02:09.957Z,8.07
2023-04-06T02:04:37.139Z,9.67
2023-04-06T02:07:04.270Z,8.07
2023-04-06T02:09:31.479Z,9.80
2023-04-06T02:11:58.633Z,10.70
2023-04-06T02:14:28.826Z,6.90
2023-04-06T02:16:56.164Z,9.33
2023-04-06T02:19:26.404Z,8.70
2023-04-06T02:21:53.554Z,6.27
2023-04-06T02:24:20.868Z,10.17
2023-04-06T02:26:48.075Z,9.37
2023-04-06T02:29:15.221Z,11.30
2023-04-06T02:31:42.385Z,9.37
2023-04-06T02:34:12.013Z,13.03
2023-04-06T02:36:39.228Z,15.03
2023-04-06T02:39:06.682Z,12.70
2023-04-06T02:41:33.919Z,11.20
2023-04-06T02:44:01.185Z,11.37
2023-04-06T02:46:28.435Z,17.57
2023-04-06T02:48:55.819Z,13.43
2023-04-06T02:51:23.061Z,14.63
2023-04-06T02:53:50.447Z,15.80
2023-04-06T02:56:17.679Z,14.77
2023-04-06T02:58:44.897Z,13.43
2023-04-06T03:01:12.068Z,13.00
2023-04-06T03:03:39.419Z,14.10
2023-04-06T03:06:07.181Z,15.37
2023-04-06T03:08:34.359Z,14.37
2023-04-06T03:11:01.526Z,17.33
2023-04-06T03:13:28.634Z,18.13
2023-04-06T03:15:56.478Z,18.77
2023-04-06T03:18:26.438Z,15.80
2023-04-06T03:20:56.964Z,21.73
2023-04-06T03:23:24.195Z,12.33
2023-04-06T03:25:51.347Z,14.40
2023-04-06T03:28:18.546Z,11.20
2023-04-06T03:30:47.040Z,13.17
2023-04-06T03:33:14.189Z,12.93
2023-04-06T03:35:41.573Z,13.63
2023-04-06T03:38:10.638Z,12.90
2023-04-06T03:40:37.762Z,13.43
2023-04-06T03:43:06.163Z,11.37
2023-04-06T03:45:33.309Z,12.13
2023-04-06T03:48:00.606Z,8.57
2023-04-06T03:50:27.786Z,14.03
2023-04-06T03:52:55.037Z,12.70
2023-04-06T03:55:22.248Z,12.40
2023-04-06T03:57:49.381Z,11.67
2023-04-06T04:00:16.922Z,15.20
2023-04-06T04:02:44.450Z,13.47
2023-04-06T04:05:11.891Z,13.87
2023-04-06T04:07:39.066Z,10.50
2023-04-06T04:10:06.970Z,12.63
2023-04-06T04:12:34.318Z,11.63
2023-04-06T04:15:01.480Z,9.57
2023-04-06T04:17:28.649Z,13.03
2023-04-06T04:19:56.024Z,14.07
2023-04-06T04:22:23.278Z,11.67
2023-04-06T04:24:50.619Z,11.87
2023-04-06T04:27:17.829Z,10.50
2023-04-06T04:29:45.142Z,13.07
2023-04-06T04:32:12.529Z,10.20
2023-04-06T04:34:41.207Z,14.10
2023-04-06T04:37:08.437Z,13.30
2023-04-06T04:39:35.728Z,11.60
2023-04-06T04:42:02.970Z,12.00
2023-04-06T04:44:30.069Z,14.07
2023-04-06T04:46:57.815Z,11.90
2023-04-06T04:49:26.596Z,16.93
2023-04-06T04:51:53.923Z,11.80
2023-04-06T04:54:21.224Z,11.47
2023-04-06T04:56:48.401Z,13.63
2023-04-06T04:59:15.614Z,12.93
2023-04-06T05:01:54.121Z,12.77
2023-04-06T05:04:22.761Z,11.23
2023-04-06T05:06:49.951Z,13.03
2023-04-06T05:09:18.402Z,11.93
2023-04-06T05:11:45.645Z,12.67
2023-04-06T05:14:13.869Z,11.37
2023-04-06T05:16:41.054Z,12.33
2023-04-06T05:19:08.412Z,12.40
2023-04-06T05:21:35.750Z,14.40
2023-04-06T05:24:03.593Z,14.13
2023-04-06T05:26:31.447Z,12.27
2023-04-06T05:28:58.617Z,10.40
2023-04-06T05:31:26.013Z,11.57
2023-04-06T05:33:53.277Z,13.60
2023-04-06T05:36:20.725Z,9.37
2023-04-06T05:38:48.051Z,12.57
2023-04-06T05:41:15.201Z,13.70
2023-04-06T05:43:42.378Z,10.73
2023-04-06T05:46:09.604Z,9.13
2023-04-06T05:48:37.026Z,8.70
2023-04-06T05:51:07.131Z,10.07
2023-04-06T05:53:34.428Z,8.20
2023-04-06T05:56:05.645Z,7.70
2023-04-06T05:58:33.566Z,8.33
2023-04-06T06:01:02.417Z,8.83
2023-04-06T06:03:32.102Z,8.37
2023-04-06T06:06:06.095Z,14.33
2023-04-06T06:08:33.358Z,8.67
2023-04-06T06:11:01.185Z,12.63
2023-04-06T06:13:28.516Z,7.17
2023-04-06T06:15:56.081Z,13.40
2023-04-06T06:18:23.296Z,13.30
2023-04-06T06:20:50.691Z,14.37
2023-04-06T06:23:17.945Z,7.60
2023-04-06T06:25:45.116Z,7.70
2023-04-06T06:28:12.324Z,9.20
2023-04-06T06:30:39.617Z,12.03
2023-04-06T06:33:06.956Z,10.73
2023-04-06T06:35:34.183Z,11.10
2023-04-06T06:38:01.450Z,11.73
2023-04-06T06:40:28.960Z,7.90
2023-04-06T06:42:56.228Z,8.17
2023-04-06T06:45:25.999Z,10.20
2023-04-06T06:47:55.156Z,10.13
2023-04-06T06:50:22.969Z,8.77
2023-04-06T06:52:50.216Z,6.73
2023-04-06T06:55:20.061Z,11.53
2023-04-06T06:57:50.729Z,10.60
2023-04-06T07:00:18.323Z,12.90
2023-04-06T07:02:45.720Z,9.67
2023-04-06T07:05:26.239Z,11.43
2023-04-06T07:07:56.010Z,8.70
2023-04-06T07:10:23.479Z,8.27
2023-04-06T07:12:51.035Z,8.53
2023-04-06T07:15:18.718Z,8.57
2023-04-06T07:17:46.347Z,6.37
2023-04-06T07:20:15.153Z,7.30
2023-04-06T07:22:45.893Z,7.30
2023-04-06T07:25:13.453Z,8.53
2023-04-06T07:27:40.912Z,6.50
2023-04-06T07:30:10.587Z,8.87
2023-04-06T07:32:37.758Z,12.90
2023-04-06T07:35:05.882Z,14.17
2023-04-06T07:37:33.112Z,6.73
2023-04-06T07:40:00.268Z,8.13
2023-04-06T07:42:27.447Z,5.20
2023-04-06T07:44:54.658Z,9.83
2023-04-06T07:47:22.108Z,9.57
2023-04-06T07:49:49.285Z,6.83
2023-04-06T07:52:18.780Z,5.27
2023-04-06T07:54:46.716Z,6.90
2023-04-06T07:57:13.930Z,7.13
2023-04-06T07:59:42.521Z,14.97
2023-04-06T08:02:09.949Z,6.33
2023-04-06T08:09:02.198Z,5.27
2023-04-06T08:11:29.488Z,5.63
2023-04-06T08:13:58.024Z,6.53
2023-04-06T08:16:25.827Z,5.57
2023-04-06T08:18:53.129Z,4.37
2023-04-06T08:21:20.374Z,4.77
2023-04-06T08:23:47.632Z,4.13
2023-04-06T08:26:14.818Z,5.43
2023-04-06T08:28:42.465Z,5.50
2023-04-06T08:31:10.486Z,4.87
2023-04-06T08:33:40.055Z,9.90
2023-04-06T08:36:17.733Z,3.83
2023-04-06T08:38:44.955Z,4.57
2023-04-06T08:41:14.471Z,4.53
2023-04-06T08:43:59.767Z,4.93
2023-04-06T08:46:30.833Z,4.57
2023-04-06T08:49:01.672Z,7.10
2023-04-06T08:51:33.855Z,4.43
2023-04-06T08:54:01.666Z,4.53
2023-04-06T08:56:29.998Z,4.23
2023-04-06T08:58:58.204Z,8.53
2023-04-06T09:01:29.014Z,5.63
2023-04-06T09:04:01.768Z,3.30
2023-04-06T09:06:29.399Z,5.97
2023-04-06T09:09:01.944Z,5.90
2023-04-06T09:11:29.201Z,11.10
2023-04-06T09:13:58.313Z,4.07
2023-04-06T09:16:26.949Z,2.33
2023-04-06T09:18:54.411Z,3.07
2023-04-06T09:21:22.880Z,5.27
2023-04-06T09:24:03.410Z,3.67
2023-04-06T09:26:34.609Z,6.80
2023-04-06T09:29:02.506Z,4.23
2023-04-06T09:31:36.313Z,6.47
2023-04-06T09:34:03.629Z,3.03
2023-04-06T09:36:34.482Z,7.00
2023-04-06T09:39:06.022Z,2.83
2023-04-06T09:41:36.710Z,2.90
2023-04-06T09:44:11.486Z,3.23
2023-04-06T09:46:55.820Z,4.97
2023-04-06T09:49:34.428Z,3.77
2023-04-06T09:52:07.308Z,6.93
2023-04-06T09:54:37.267Z,4.47
2023-04-06T09:57:33.021Z,2.73
2023-04-06T10:00:12.437Z,10.73
2023-04-06T10:03:30.102Z,2.87
2023-04-06T10:06:12.094Z,3.53
2023-04-06T10:08:46.931Z,2.23
2023-04-06T10:11:14.404Z,2.63
2023-04-06T10:13:42.965Z,2.80
2023-04-06T10:16:10.889Z,3.37
2023-04-06T10:18:40.542Z,4.47
2023-04-06T10:21:17.122Z,1.93
2023-04-06T10:23:58.783Z,2.20
2023-04-06T10:26:26.061Z,3.20
2023-04-06T10:28:54.274Z,2.40
2023-04-06T10:31:29.404Z,3.47
2023-04-06T10:34:02.552Z,3.20
2023-04-06T10:36:35.141Z,2.67
2023-04-06T10:39:07.433Z,4.10
2023-04-06T10:41:45.750Z,4.37
2023-04-06T10:44:26.719Z,2.93
2023-04-06T10:46:58.007Z,2.13
2023-04-06T10:49:27.741Z,2.80
2023-04-06T10:51:58.466Z,2.50
2023-04-06T10:54:28.846Z,3.23
2023-04-06T10:56:59.147Z,2.23
2023-04-06T10:59:26.778Z,3.80
2023-04-06T11:01:55.990Z,4.47
2023-04-06T11:04:24.489Z,2.63
2023-04-06T11:06:52.798Z,1.70
2023-04-06T11:09:32.644Z,2.30
2023-04-06T11:11:59.997Z,2.23
2023-04-06T11:14:27.613Z,1.83
2023-04-06T11:16:55.370Z,1.60
2023-04-06T11:19:22.722Z,3.17
2023-04-06T11:21:50.866Z,2.73
2023-04-06T11:24:27.711Z,5.40
2023-04-06T11:27:01.872Z,4.40
2023-04-06T11:29:39.243Z,4.90
2023-04-06T11:32:08.389Z,3.50
2023-04-06T11:34:39.919Z,1.63
2023-04-06T11:37:13.175Z,6.50
2023-04-06T11:39:49.347Z,2.33
2023-04-06T11:42:27.342Z,3.37
2023-04-06T11:45:06.685Z,3.20
2023-04-06T11:47:38.918Z,3.10
2023-04-06T11:50:15.104Z,1.77
2023-04-06T11:52:43.767Z,5.50
2023-04-06T11:55:17.912Z,2.83
2023-04-06T11:57:47.990Z,2.23
2023-04-06T12:00:16.153Z,2.47
2023-04-06T12:02:48.964Z,2.37
2023-04-06T12:05:16.461Z,4.57
2023-04-06T12:07:44.019Z,2.80
2023-04-06T12:10:11.937Z,4.77
2023-04-06T12:12:39.564Z,3.60
2023-04-06T12:15:08.257Z,4.23
2023-04-06T12:17:35.742Z,2.70
2023-04-06T12:20:09.345Z,1.90
2023-04-06T12:22:41.285Z,4.37
2023-04-06T12:25:09.064Z,2.73
2023-04-06T12:27:36.508Z,4.30
2023-04-06T12:30:04.070Z,3.50
2023-04-06T12:32:31.181Z,3.73
2023-04-06T12:34:58.476Z,4.20
2023-04-06T12:37:25.670Z,3.30
2023-04-06T12:39:54.259Z,2.17
2023-04-06T12:42:21.601Z,2.93
2023-04-06T12:44:48.779Z,7.63
2023-04-06T12:47:15.979Z,2.57
2023-04-06T12:49:43.862Z,7.57
2023-04-06T12:52:11.616Z,2.23
2023-04-06T12:54:38.892Z,2.07
2023-04-06T12:57:06.112Z,7.57
2023-04-06T12:59:36.453Z,4.47
2023-04-06T13:02:05.932Z,2.45
2023-04-06T13:04:33.409Z,5.43
2023-04-06T13:07:00.565Z,2.13
2023-04-06T13:09:27.734Z,2.75
2023-04-06T13:11:55.378Z,1.93
2023-04-06T13:14:22.709Z,2.33
2023-04-06T13:16:50.267Z,2.13
2023-04-06T13:19:19.158Z,1.52
2023-04-06T13:21:46.336Z,2.38
2023-04-06T13:24:15.510Z,1.88
2023-04-06T13:26:43.517Z,3.17
2023-04-06T13:29:10.943Z,5.97
2023-04-06T13:31:39.016Z,6.00
2023-04-06T13:34:07.013Z,2.40
2023-04-06T13:36:34.265Z,2.72
2023-04-06T13:39:01.600Z,2.20
2023-04-06T13:41:28.804Z,2.13
2023-04-06T13:43:56.035Z,3.65
2023-04-06T13:46:25.175Z,2.75
2023-04-06T13:49:06.263Z,2.10
2023-04-06T13:51:33.566Z,2.33
2023-04-06T13:54:00.818Z,5.47
2023-04-06T13:56:27.981Z,1.30
2023-04-06T13:59:00.093Z,4.03
2023-04-06T14:01:27.704Z,8.57
2023-04-06T14:03:55.045Z,3.13
2023-04-06T14:06:31.182Z,2.33
2023-04-06T14:08:59.599Z,1.92
2023-04-06T14:11:27.348Z,2.20
2023-04-06T14:13:56.547Z,3.83
2023-04-06T14:16:27.755Z,2.60
2023-04-06T14:18:55.828Z,2.97
2023-04-06T14:21:23.270Z,4.65
2023-04-06T14:23:50.456Z,1.42
2023-04-06T14:26:17.660Z,4.88
2023-04-06T14:28:47.225Z,2.15
2023-04-06T14:31:19.258Z,4.47
2023-04-06T14:33:47.306Z,1.40
2023-04-06T14:36:15.268Z,3.47
2023-04-06T14:38:44.727Z,2.60
2023-04-06T14:41:22.150Z,2.65
2023-04-06T14:43:49.581Z,4.38
2023-04-06T14:46:16.842Z,5.10
2023-04-06T14:48:44.046Z,3.42
2023-04-06T14:51:11.464Z,2.15
2023-04-06T14:53:38.995Z,1.77
2023-04-06T14:56:06.927Z,2.35
2023-04-06T14:58:34.194Z,1.98
2023-04-06T15:01:02.976Z,3.17
2023-04-06T15:03:33.289Z,3.08
2023-04-06T15:06:01.953Z,2.03
2023-04-06T15:08:31.670Z,3.03
2023-04-06T15:11:01.046Z,3.08
2023-04-06T15:13:31.303Z,1.58
2023-04-06T15:16:02.122Z,2.03
2023-04-06T15:18:29.557Z,2.75
2023-04-06T15:20:56.916Z,2.70
2023-04-06T15:23:24.229Z,2.63
2023-04-06T15:25:51.692Z,2.38
2023-04-06T15:28:21.996Z,3.53
2023-04-06T15:30:49.148Z,5.70
2023-04-06T15:33:16.442Z,3.13
2023-04-06T15:35:43.944Z,5.38
2023-04-06T15:38:11.633Z,7.00
2023-04-06T15:40:48.974Z,8.73
2023-04-06T15:43:17.063Z,3.13
2023-04-06T15:45:44.182Z,2.25
2023-04-06T15:48:11.371Z,3.58
2023-04-06T15:50:38.716Z,3.30
2023-04-06T15:53:06.029Z,1.95
2023-04-06T15:55:33.205Z,2.67
2023-04-06T15:58:00.439Z,2.55
2023-04-06T16:00:28.858Z,1.93
2023-04-06T16:02:57.072Z,2.37
2023-04-06T16:05:24.446Z,5.80
2023-04-06T16:07:51.529Z,4.27
2023-04-06T16:10:18.723Z,3.57
2023-04-06T16:12:46.079Z,5.37
2023-04-06T16:15:13.488Z,3.00
2023-04-06T16:17:43.219Z,3.27
2023-04-06T16:20:12.284Z,3.33
2023-04-06T16:22:39.585Z,2.33
2023-04-06T16:25:07.477Z,3.67
2023-04-06T16:27:34.556Z,2.50
2023-04-06T16:32:29.986Z,3.57
2023-04-06T16:34:57.118Z,2.80
2023-04-06T16:37:24.191Z,3.97
2023-04-06T16:39:54.340Z,6.03
2023-04-06T16:42:21.418Z,5.60
2023-04-06T16:44:49.109Z,5.33
2023-04-06T16:47:17.923Z,3.40
2023-04-06T16:49:45.193Z,3.70
2023-04-06T16:52:12.911Z,6.00
2023-04-06T16:54:40.133Z,3.93
2023-04-06T16:57:07.245Z,2.90
2023-04-06T16:59:40.107Z,3.40
2023-04-06T17:02:07.494Z,2.07
2023-04-06T17:04:34.616Z,3.43
2023-04-06T17:07:01.845Z,5.90
2023-04-06T17:09:29.087Z,4.03
2023-04-06T17:11:56.774Z,3.57
2023-04-06T17:14:24.497Z,4.30
2023-04-06T17:16:51.758Z,3.37
2023-04-06T17:19:20.255Z,4.73
2023-04-06T17:21:47.881Z,3.00
2023-04-06T17:24:15.613Z,6.70
2023-04-06T17:26:42.835Z,3.37
2023-04-06T17:29:10.752Z,5.73
2023-04-06T17:31:37.902Z,5.33
2023-04-06T17:34:05.458Z,5.93
2023-04-06T17:36:32.829Z,4.00
2023-04-06T17:38:59.997Z,4.43
2023-04-06T17:41:28.557Z,5.13
2023-04-06T17:43:55.815Z,3.53
2023-04-06T17:46:22.931Z,5.83
2023-04-06T17:48:51.826Z,4.20
2023-04-06T17:51:20.214Z,3.50
2023-04-06T17:53:47.993Z,4.60
2023-04-06T17:56:15.481Z,6.70
2023-04-06T17:58:42.762Z,3.80
2023-04-06T18:01:14.466Z,4.40
2023-04-06T18:03:41.631Z,3.00
2023-04-06T18:06:16.221Z,5.60
2023-04-06T18:08:43.759Z,5.70
2023-04-06T18:11:21.518Z,6.23
2023-04-06T18:13:48.869Z,6.53
2023-04-06T18:16:17.681Z,5.43
2023-04-06T18:18:45.301Z,4.60
2023-04-06T18:21:12.432Z,4.27
2023-04-06T18:23:39.522Z,5.80
2023-04-06T18:26:07.496Z,6.57
2023-04-06T18:28:34.711Z,4.33
2023-04-06T18:31:02.264Z,3.87
2023-04-06T18:33:29.812Z,7.60
2023-04-06T18:35:56.993Z,4.87
2023-04-06T18:38:24.293Z,6.73
2023-04-06T18:40:52.079Z,4.07
2023-04-06T18:43:19.262Z,5.43
2023-04-06T18:45:46.450Z,6.80
2023-04-06T18:48:14.080Z,4.70
2023-04-06T18:50:41.238Z,6.00
2023-04-06T18:53:08.407Z,6.63
2023-04-06T18:55:36.385Z,7.53
2023-04-06T18:58:03.473Z,7.87
2023-04-06T19:00:30.820Z,7.13
2023-04-06T19:02:58.040Z,5.87
2023-04-06T19:05:26.493Z,4.67
2023-04-06T19:07:53.539Z,5.93
2023-04-06T19:10:20.872Z,5.37
2023-04-06T19:12:48.782Z,9.83
2023-04-06T19:15:16.101Z,5.93
2023-04-06T19:17:43.359Z,6.43
2023-04-06T19:20:12.061Z,7.10
2023-04-06T19:22:39.358Z,6.10
2023-04-06T19:25:07.973Z,8.67
2023-04-06T19:27:35.277Z,9.03
2023-04-06T19:30:03.484Z,6.97
2023-04-06T19:32:30.797Z,9.87
2023-04-06T19:34:59.614Z,10.03
2023-04-06T19:37:27.291Z,10.93
2023-04-06T19:39:54.521Z,7.03
2023-04-06T19:42:22.923Z,9.13
2023-04-06T19:44:50.139Z,13.73
2023-04-06T19:47:17.455Z,9.03
2023-04-06T19:49:45.067Z,8.00
2023-04-06T19:52:12.485Z,9.37
2023-04-06T19:54:40.343Z,11.03
2023-04-06T19:57:08.179Z,7.80
2023-04-06T19:59:35.386Z,10.90
2023-04-06T20:02:02.997Z,8.80
2023-04-06T20:04:30.429Z,7.13
2023-04-06T20:06:57.678Z,11.20
2023-04-06T20:09:25.140Z,11.97
2023-04-06T20:11:54.035Z,8.63
2023-04-06T20:14:22.957Z,9.43
2023-04-06T20:16:50.912Z,10.53
2023-04-06T20:19:18.356Z,9.10
2023-04-06T20:21:45.991Z,9.17
2023-04-06T20:24:16.366Z,8.60
2023-04-06T20:26:43.483Z,10.97
2023-04-06T20:29:10.601Z,7.77
2023-04-06T20:31:37.829Z,10.33
2023-04-06T20:34:05.015Z,6.47
2023-04-06T20:36:33.767Z,5.47
2023-04-06T20:39:01.132Z,6.80
2023-04-06T20:41:28.365Z,8.43
2023-04-06T20:43:55.427Z,8.63
2023-04-06T20:46:25.061Z,8.07
2023-04-06T20:48:53.159Z,7.87
2023-04-06T20:51:23.227Z,8.37
2023-04-06T20:53:50.455Z,8.73
2023-04-06T20:56:17.588Z,13.70
2023-04-06T20:58:44.686Z,9.03
2023-04-06T21:01:18.470Z,12.07
2023-04-06T21:03:46.034Z,13.13
2023-04-06T21:06:13.580Z,10.63
2023-04-06T21:08:40.897Z,12.73
2023-04-06T21:11:08.211Z,10.87
2023-04-06T21:13:35.728Z,8.50
2023-04-06T21:16:07.071Z,12.23
2023-04-06T21:18:34.277Z,15.17
2023-04-06T21:21:01.425Z,11.57
2023-04-06T21:23:31.349Z,9.33
2023-04-06T21:25:58.538Z,11.67
2023-04-06T21:28:26.794Z,12.03
2023-04-06T21:30:55.402Z,12.40
2023-04-06T21:33:22.951Z,14.30
2023-04-06T21:35:50.097Z,16.60
2023-04-06T21:38:17.216Z,13.27
2023-04-06T21:40:44.459Z,9.57
2023-04-06T21:43:11.583Z,9.17
2023-04-06T21:45:39.058Z,12.90
2023-04-06T21:48:07.023Z,11.07
2023-04-06T21:50:38.645Z,10.37
2023-04-06T21:53:05.890Z,9.17
2023-04-06T21:55:33.049Z,10.87
2023-04-06T21:58:00.336Z,7.23
2023-04-06T22:00:29.813Z,12.80
2023-04-06T22:02:57.069Z,9.93
2023-04-06T22:05:24.393Z,9.37
2023-04-06T22:07:52.286Z,10.07
2023-04-06T22:10:19.987Z,9.20
2023-04-06T22:12:48.999Z,12.17
2023-04-06T22:15:17.540Z,13.37
2023-04-06T22:17:44.640Z,9.83
2023-04-06T22:20:12.034Z,8.30
2023-04-06T22:22:39.582Z,8.00
2023-04-06T22:25:07.722Z,10.47
2023-04-06T22:27:34.803Z,6.80
2023-04-06T22:30:02.095Z,8.77
2023-04-06T22:32:29.221Z,7.90
2023-04-06T22:34:56.361Z,8.83
2023-04-06T22:37:23.499Z,10.33
2023-04-06T22:39:50.722Z,10.10
2023-04-06T22:42:17.801Z,7.93
2023-04-06T22:44:44.871Z,6.07
2023-04-06T22:47:12.141Z,9.93
2023-04-06T22:49:39.434Z,6.50
2023-04-06T22:52:06.777Z,7.03
2023-04-06T22:54:33.940Z,10.33
2023-04-06T22:57:01.203Z,7.40
2023-04-06T22:59:28.359Z,10.73
2023-04-06T23:01:56.915Z,8.63
2023-04-06T23:04:24.316Z,10.20
2023-04-06T23:06:52.091Z,6.73
2023-04-06T23:09:19.400Z,8.73
2023-04-06T23:11:46.672Z,7.47
2023-04-06T23:14:14.628Z,9.63
2023-04-06T23:16:42.187Z,9.30
2023-04-06T23:19:09.396Z,11.37
2023-04-06T23:21:36.649Z,7.80
2023-04-06T23:24:03.929Z,8.13
2023-04-06T23:26:31.160Z,9.00
2023-04-06T23:28:58.344Z,7.70
2023-04-06T23:31:25.817Z,8.93
2023-04-06T23:33:52.991Z,8.27
2023-04-06T23:36:20.190Z,9.90
2023-04-06T23:38:47.412Z,8.03
2023-04-06T23:41:16.349Z,7.97
2023-04-06T23:43:43.697Z,9.67
2023-04-06T23:46:15.349Z,8.40
2023-04-06T23:48:42.622Z,9.97
2023-04-06T23:51:09.789Z,10.20
2023-04-06T23:53:37.333Z,10.43
2023-04-06T23:56:04.922Z,10.80
2023-04-06T23:58:34.463Z,8.93
